createdAt,value
2019-01-13T00:00:43.474Z,3.80
2019-01-13T00:03:31.819Z,3.80
2019-01-13T00:06:20.113Z,3.80
2019-01-13T00:09:11.013Z,3.80
2019-01-13T00:11:59.237Z,3.70
2019-01-13T00:14:47.546Z,3.70
2019-01-13T00:17:35.839Z,3.70
2019-01-13T00:20:24.068Z,3.70
2019-01-13T00:26:06.680Z,3.80
2019-01-13T00:31:48.589Z,3.80
2019-01-13T00:34:36.915Z,3.90
2019-01-13T00:40:26.617Z,3.90
2019-01-13T00:43:07.838Z,3.80
2019-01-13T00:45:48.257Z,3.80
2019-01-13T00:48:29.074Z,3.80
2019-01-13T00:51:09.926Z,3.80
2019-01-13T00:53:50.754Z,3.80
2019-01-13T00:56:31.477Z,3.80
2019-01-13T00:59:10.861Z,3.80
2019-01-13T01:10:48.266Z,3.80
2019-01-13T01:16:43.988Z,3.90
2019-01-13T01:19:32.208Z,3.80
2019-01-13T01:22:20.601Z,3.90
2019-01-13T01:25:09.258Z,3.80
2019-01-13T01:30:51.673Z,3.90
2019-01-13T01:33:39.989Z,3.90
2019-01-13T01:36:28.180Z,4.00
2019-01-13T01:39:16.452Z,3.90
2019-01-13T01:42:04.671Z,3.90
2019-01-13T01:44:52.861Z,4.00
2019-01-13T01:47:41.117Z,4.00
2019-01-13T01:50:29.310Z,4.00
2019-01-13T02:01:58.687Z,3.90
2019-01-13T02:13:28.209Z,3.90
2019-01-13T02:16:27.638Z,4.00
2019-01-13T02:22:09.601Z,4.00
2019-01-13T02:24:57.830Z,4.00
2019-01-13T02:27:46.120Z,4.00
2019-01-13T02:42:05.354Z,4.10
2019-01-13T02:44:46.036Z,4.10
2019-01-13T02:47:26.739Z,4.10
2019-01-13T02:50:07.432Z,4.20
2019-01-13T02:52:48.289Z,4.20
2019-01-13T02:55:28.977Z,4.20
2019-01-13T02:58:09.744Z,4.20
2019-01-13T03:00:56.992Z,4.20
2019-01-13T03:03:32.844Z,4.20
2019-01-13T03:06:13.686Z,4.20
2019-01-13T03:08:54.672Z,4.20
2019-01-13T03:11:35.417Z,4.30
2019-01-13T03:14:16.012Z,4.20
2019-01-13T03:16:56.685Z,4.20
2019-01-13T03:19:39.195Z,4.30
2019-01-13T03:22:19.783Z,4.30
2019-01-13T03:25:00.613Z,4.20
2019-01-13T03:27:41.458Z,4.20
2019-01-13T03:30:21.917Z,4.30
2019-01-13T03:33:02.425Z,4.30
2019-01-13T03:35:43.222Z,4.30
2019-01-13T03:38:23.729Z,4.30
2019-01-13T03:41:04.421Z,4.30
2019-01-13T03:43:45.189Z,4.20
2019-01-13T03:46:25.659Z,4.30
2019-01-13T03:49:06.469Z,4.30
2019-01-13T03:51:46.969Z,4.30
2019-01-13T03:54:27.746Z,4.30
2019-01-13T03:57:08.369Z,4.30
2019-01-13T03:59:49.629Z,4.30
2019-01-13T04:02:30.800Z,4.40
2019-01-13T04:05:11.652Z,4.40
2019-01-13T04:07:52.620Z,4.30
2019-01-13T04:10:33.797Z,4.30
2019-01-13T04:13:13.167Z,4.30
2019-01-13T04:19:09.039Z,4.30
2019-01-13T04:25:05.235Z,4.30
2019-01-13T04:42:36.637Z,4.50
2019-01-13T04:45:25.059Z,4.50
2019-01-13T04:48:13.326Z,4.50
2019-01-13T04:51:01.560Z,4.40
2019-01-13T04:53:49.778Z,4.50
2019-01-13T04:56:37.983Z,4.40
2019-01-13T04:59:26.231Z,4.50
2019-01-13T05:02:14.410Z,4.50
2019-01-13T05:05:02.678Z,4.40
2019-01-13T05:13:45.429Z,4.40
2019-01-13T05:16:26.418Z,4.40
2019-01-13T05:19:07.238Z,4.50
2019-01-13T05:21:47.928Z,4.50
2019-01-13T05:24:29.166Z,4.50
2019-01-13T05:27:08.540Z,4.60
2019-01-13T05:33:04.177Z,4.50
2019-01-13T05:41:34.224Z,4.60
2019-01-13T05:44:16.321Z,4.70
2019-01-13T05:46:57.515Z,4.70
2019-01-13T05:49:37.990Z,4.70
2019-01-13T05:52:18.970Z,4.70
2019-01-13T05:54:59.464Z,4.80
2019-01-13T05:57:40.729Z,4.70
2019-01-13T06:00:21.405Z,4.80
2019-01-13T06:03:02.717Z,4.70
2019-01-13T06:05:43.689Z,4.80
2019-01-13T06:08:26.416Z,4.80
2019-01-13T06:11:07.345Z,4.80
2019-01-13T06:13:47.752Z,4.90
2019-01-13T06:16:28.797Z,4.90
2019-01-13T06:19:09.640Z,4.80
2019-01-13T06:21:50.475Z,4.80
2019-01-13T06:24:31.165Z,4.80
2019-01-13T06:27:11.969Z,4.80
2019-01-13T06:29:53.057Z,4.90
2019-01-13T06:32:33.941Z,4.90
2019-01-13T06:35:14.809Z,4.90
2019-01-13T06:37:55.872Z,4.90
2019-01-13T06:40:36.572Z,5.00
2019-01-13T06:43:17.273Z,5.00
2019-01-13T06:45:58.323Z,5.00
2019-01-13T06:48:41.356Z,4.90
2019-01-13T06:51:21.720Z,5.00
2019-01-13T06:54:03.051Z,5.00
2019-01-13T06:56:44.101Z,5.00
2019-01-13T06:59:25.487Z,5.00
2019-01-13T07:02:06.249Z,5.00
2019-01-13T07:04:46.918Z,5.00
2019-01-13T07:07:27.496Z,4.90
2019-01-13T07:10:08.802Z,4.90
2019-01-13T07:12:50.101Z,5.00
2019-01-13T07:15:30.700Z,5.00
2019-01-13T07:18:11.302Z,5.00
2019-01-13T07:20:52.809Z,5.00
2019-01-13T07:23:34.132Z,5.00
2019-01-13T07:26:14.978Z,5.00
2019-01-13T07:28:55.854Z,5.00
2019-01-13T07:31:37.232Z,5.10
2019-01-13T07:34:17.861Z,5.10
2019-01-13T07:36:59.252Z,5.10
2019-01-13T07:39:39.905Z,5.10
2019-01-13T07:42:21.132Z,5.20
2019-01-13T07:45:01.872Z,5.20
2019-01-13T07:47:42.772Z,5.10
2019-01-13T07:50:23.340Z,5.10
2019-01-13T07:53:04.296Z,5.10
2019-01-13T07:55:44.881Z,5.10
2019-01-13T07:58:26.152Z,5.00
2019-01-13T08:01:06.739Z,5.00
2019-01-13T08:03:47.977Z,5.00
2019-01-13T08:06:29.463Z,5.00
2019-01-13T08:09:10.865Z,5.00
2019-01-13T08:11:52.201Z,5.00
2019-01-13T08:14:33.138Z,5.10
2019-01-13T08:17:13.858Z,5.00
2019-01-13T08:19:54.698Z,5.00
2019-01-13T08:22:35.530Z,5.00
2019-01-13T08:25:16.301Z,5.10
2019-01-13T08:27:57.169Z,5.10
2019-01-13T08:30:37.717Z,5.10
2019-01-13T08:33:18.550Z,5.00
2019-01-13T08:35:59.436Z,5.00
2019-01-13T08:38:40.717Z,5.00
2019-01-13T08:41:21.648Z,5.10
2019-01-13T08:44:02.485Z,5.10
2019-01-13T08:46:43.454Z,5.10
2019-01-13T08:49:24.085Z,5.10
2019-01-13T08:52:03.358Z,5.20
2019-01-13T08:57:45.878Z,5.20
2019-01-13T09:00:34.662Z,5.20
2019-01-13T09:03:22.985Z,5.20
2019-01-13T09:09:18.601Z,5.20
2019-01-13T09:12:06.840Z,5.20
2019-01-13T09:14:46.273Z,5.30
2019-01-13T09:26:38.863Z,5.20
2019-01-13T09:35:15.433Z,5.20
2019-01-13T09:40:58.066Z,5.20
2019-01-13T09:46:53.736Z,5.20
2019-01-13T09:49:41.968Z,5.20
2019-01-13T09:58:19.472Z,5.20
2019-01-13T10:01:07.750Z,5.20
2019-01-13T10:07:03.391Z,5.20
2019-01-13T10:09:51.618Z,5.20
2019-01-13T10:15:26.401Z,5.10
2019-01-13T10:18:07.364Z,5.10
2019-01-13T10:20:48.298Z,5.10
2019-01-13T10:23:29.120Z,5.20
2019-01-13T10:26:09.692Z,5.10
2019-01-13T10:28:50.948Z,5.10
2019-01-13T10:31:31.882Z,5.10
2019-01-13T10:34:13.237Z,5.10
2019-01-13T10:36:53.800Z,5.10
2019-01-13T10:39:34.424Z,5.10
2019-01-13T10:42:15.621Z,5.10
2019-01-13T10:44:56.010Z,5.00
2019-01-13T10:47:37.001Z,5.00
2019-01-13T10:50:17.772Z,5.00
2019-01-13T10:52:58.595Z,5.00
2019-01-13T10:55:39.803Z,5.00
2019-01-13T10:58:20.500Z,5.00
2019-01-13T11:01:01.274Z,4.90
2019-01-13T11:03:40.650Z,4.90
2019-01-13T11:12:17.447Z,4.90
2019-01-13T11:21:08.897Z,5.00
2019-01-13T11:23:57.180Z,5.00
2019-01-13T11:26:45.414Z,5.00
2019-01-13T11:29:52.729Z,5.00
2019-01-13T11:32:41.049Z,5.00
2019-01-13T11:38:22.804Z,5.00
2019-01-13T11:41:11.120Z,5.10
2019-01-13T11:43:59.444Z,5.00
2019-01-13T11:46:47.760Z,5.10
2019-01-13T11:49:28.859Z,5.10
2019-01-13T11:52:09.337Z,5.10
2019-01-13T11:54:50.602Z,5.20
2019-01-13T11:57:29.939Z,5.20
2019-01-13T12:00:19.487Z,5.20
2019-01-13T12:14:43.372Z,5.20
2019-01-13T12:17:22.736Z,5.10
2019-01-13T12:23:27.061Z,5.20
2019-01-13T12:32:37.289Z,5.30
2019-01-13T12:38:19.865Z,5.30
2019-01-13T12:52:59.408Z,5.30
2019-01-13T13:16:31.572Z,5.50
2019-01-13T13:19:12.529Z,5.50
2019-01-13T13:21:53.750Z,5.60
2019-01-13T13:24:35.223Z,5.60
2019-01-13T13:27:16.483Z,5.60
2019-01-13T13:29:55.777Z,5.60
2019-01-13T13:35:40.046Z,5.60
2019-01-13T13:38:28.314Z,5.70
2019-01-13T13:47:17.689Z,5.70
2019-01-13T13:59:21.765Z,5.80
2019-01-13T14:02:03.209Z,5.80
2019-01-13T14:04:43.884Z,5.90
2019-01-13T14:07:24.561Z,5.90
2019-01-13T14:10:05.144Z,5.90
2019-01-13T14:12:45.979Z,5.90
2019-01-13T14:15:27.110Z,5.90
2019-01-13T14:18:07.758Z,6.00
2019-01-13T14:20:48.317Z,6.00
2019-01-13T14:23:29.577Z,6.00
2019-01-13T14:26:10.591Z,6.00
2019-01-13T14:28:51.492Z,6.10
2019-01-13T14:31:32.317Z,6.20
2019-01-13T14:34:13.033Z,6.30
2019-01-13T14:36:54.239Z,6.30
2019-01-13T14:39:35.139Z,6.30
2019-01-13T14:42:15.871Z,6.40
2019-01-13T14:44:57.060Z,6.40
2019-01-13T14:47:37.764Z,6.30
2019-01-13T14:50:18.302Z,6.40
2019-01-13T14:52:59.042Z,6.50
2019-01-13T14:55:39.647Z,6.60
2019-01-13T14:58:26.218Z,6.60
2019-01-13T15:01:07.017Z,6.60
2019-01-13T15:03:47.586Z,6.60
2019-01-13T15:06:27.985Z,6.60
2019-01-13T15:09:09.854Z,6.60
2019-01-13T15:11:49.343Z,6.60
2019-01-13T15:38:03.426Z,6.70
2019-01-13T15:43:51.699Z,6.80
2019-01-13T15:46:32.142Z,6.80
2019-01-13T15:49:12.853Z,6.70
2019-01-13T15:51:54.071Z,6.70
2019-01-13T15:54:34.691Z,6.70
2019-01-13T15:57:15.272Z,6.70
2019-01-13T15:59:55.732Z,6.70
2019-01-13T16:02:37.471Z,6.70
2019-01-13T16:05:17.898Z,6.70
2019-01-13T16:07:59.106Z,6.70
2019-01-13T16:10:40.440Z,6.70
2019-01-13T16:13:21.290Z,6.80
2019-01-13T16:16:01.724Z,6.70
2019-01-13T16:18:41.178Z,6.70
2019-01-13T16:33:29.989Z,6.80
2019-01-13T16:36:18.295Z,6.80
2019-01-13T16:48:10.216Z,6.90
2019-01-13T16:56:48.236Z,6.90
2019-01-13T17:02:47.830Z,6.90
2019-01-13T17:05:57.921Z,6.90
2019-01-13T17:17:41.188Z,7.00
2019-01-13T17:26:31.577Z,6.90
2019-01-13T17:29:19.815Z,6.90
2019-01-13T17:37:55.827Z,7.00
2019-01-13T17:49:50.874Z,7.00
2019-01-13T18:08:04.858Z,7.30
2019-01-13T18:14:20.968Z,7.40
2019-01-13T18:17:06.366Z,7.40
2019-01-13T18:19:44.090Z,7.40
2019-01-13T18:22:25.404Z,7.40
2019-01-13T18:25:05.973Z,7.40
2019-01-13T18:27:47.240Z,7.40
2019-01-13T18:30:27.896Z,7.40
2019-01-13T18:33:09.222Z,7.40
2019-01-13T18:35:49.838Z,7.40
2019-01-13T18:38:30.711Z,7.40
2019-01-13T18:41:12.035Z,7.40
2019-01-13T18:43:52.863Z,7.50
2019-01-13T18:46:33.583Z,7.40
2019-01-13T18:49:14.213Z,7.50
2019-01-13T18:51:54.935Z,7.50
2019-01-13T18:54:35.761Z,7.40
2019-01-13T18:57:17.085Z,7.50
2019-01-13T18:59:57.984Z,7.50
2019-01-13T19:02:38.513Z,7.50
2019-01-13T19:05:19.217Z,7.50
2019-01-13T19:07:59.801Z,7.50
2019-01-13T19:10:41.681Z,7.50
2019-01-13T19:13:26.011Z,7.50
2019-01-13T19:16:08.730Z,7.60
2019-01-13T19:18:49.377Z,7.60
2019-01-13T19:21:32.254Z,7.60
2019-01-13T19:24:15.860Z,7.50
2019-01-13T19:26:57.229Z,7.60
2019-01-13T19:29:37.788Z,7.70
2019-01-13T19:32:19.069Z,7.60
2019-01-13T19:35:04.510Z,7.60
2019-01-13T19:40:44.442Z,7.60
2019-01-13T19:52:40.492Z,7.70
2019-01-13T19:55:20.400Z,7.80
2019-01-13T19:58:01.531Z,7.80
2019-01-13T20:00:42.871Z,7.80
2019-01-13T20:03:24.296Z,7.80
2019-01-13T20:06:05.011Z,7.80
2019-01-13T20:08:45.766Z,7.90
2019-01-13T20:11:26.491Z,7.90
2019-01-13T20:14:08.428Z,7.90
2019-01-13T20:16:47.853Z,7.90
2019-01-13T20:19:47.985Z,8.00
2019-01-13T20:34:16.573Z,7.90
2019-01-13T20:36:57.806Z,7.90
2019-01-13T20:39:38.702Z,7.90
2019-01-13T20:42:19.521Z,7.90
2019-01-13T20:44:59.994Z,8.00
2019-01-13T20:47:39.416Z,8.00
2019-01-13T21:05:12.001Z,8.10
2019-01-13T21:10:54.273Z,8.20
2019-01-13T21:16:36.422Z,8.20
2019-01-13T21:19:24.703Z,8.30
2019-01-13T21:39:50.936Z,8.30
2019-01-13T21:45:39.702Z,8.40
2019-01-13T21:48:20.507Z,8.40
2019-01-13T21:51:01.067Z,8.40
2019-01-13T21:53:43.225Z,8.40
2019-01-13T21:56:24.198Z,8.30
2019-01-13T21:59:05.545Z,8.30
2019-01-13T22:01:46.184Z,8.30
2019-01-13T22:04:27.347Z,8.30
2019-01-13T22:07:08.234Z,8.20
2019-01-13T22:09:48.780Z,8.30
2019-01-13T22:12:30.031Z,8.30
2019-01-13T22:15:10.906Z,8.30
2019-01-13T22:17:53.224Z,8.30
2019-01-13T22:23:34.986Z,8.30
2019-01-13T22:32:27.897Z,8.30
2019-01-13T22:35:16.128Z,8.30
2019-01-13T22:38:04.478Z,8.30
2019-01-13T22:46:40.376Z,8.40
2019-01-13T22:49:28.690Z,8.30
2019-01-13T22:52:16.931Z,8.40
2019-01-13T22:54:57.685Z,8.40
2019-01-13T22:57:39.013Z,8.40
2019-01-13T23:03:13.397Z,8.30
2019-01-13T23:05:55.774Z,8.30
2019-01-13T23:08:36.474Z,8.30
2019-01-13T23:11:17.139Z,8.20
2019-01-13T23:13:58.481Z,8.10
2019-01-13T23:16:39.007Z,8.20
2019-01-13T23:19:20.321Z,8.20
2019-01-13T23:22:01.408Z,8.20
2019-01-13T23:24:42.717Z,8.20
2019-01-13T23:27:23.209Z,8.30
2019-01-13T23:30:04.742Z,8.20
2019-01-13T23:32:45.615Z,8.00
2019-01-13T23:35:26.387Z,7.80
2019-01-13T23:38:07.583Z,7.50
2019-01-13T23:40:48.449Z,7.50
2019-01-13T23:43:29.505Z,7.30
2019-01-13T23:46:10.678Z,7.10
2019-01-13T23:48:53.017Z,6.90
2019-01-13T23:51:33.549Z,6.80
2019-01-13T23:54:14.035Z,6.70
2019-01-13T23:56:54.503Z,6.70
2019-01-13T23:59:34.933Z,6.70
